createdAt,value
2022-12-18T06:36:54.130Z,9.45
2022-12-18T06:39:22.125Z,8.55
2022-12-18T06:46:48.059Z,12.32
2022-12-18T06:49:18.091Z,11.65
2022-12-18T06:51:45.770Z,11.48
2022-12-18T06:54:15.066Z,12.32
2022-12-18T06:56:42.725Z,12.57
2022-12-18T06:59:10.416Z,12.00
2022-12-18T07:01:38.220Z,11.13
2022-12-18T07:04:05.996Z,10.63
2022-12-18T07:06:33.643Z,10.13
2022-12-18T07:09:03.595Z,8.98
2022-12-18T07:11:33.710Z,8.10
2022-12-18T07:14:01.391Z,4.85
2022-12-18T07:16:32.168Z,5.25
2022-12-18T07:18:59.854Z,5.68
2022-12-18T07:21:27.585Z,4.65
2022-12-18T07:23:55.291Z,4.63
2022-12-18T07:26:23.315Z,4.30
2022-12-18T07:28:51.078Z,4.78
2022-12-18T07:31:21.437Z,4.28
2022-12-18T07:33:49.715Z,3.80
2022-12-18T07:36:17.363Z,3.65
2022-12-18T07:38:48.127Z,3.47
2022-12-18T07:41:16.043Z,3.30
2022-12-18T07:43:44.122Z,4.25
2022-12-18T07:46:20.011Z,3.97
2022-12-18T07:48:49.779Z,3.58
2022-12-18T07:51:18.403Z,3.22
2022-12-18T07:53:46.136Z,3.40
2022-12-18T07:56:31.164Z,3.78
2022-12-18T07:59:00.108Z,4.00
2022-12-18T08:01:31.208Z,4.28
2022-12-18T08:03:59.494Z,4.05
2022-12-18T08:06:27.125Z,3.85
2022-12-18T08:08:58.089Z,3.58
2022-12-18T08:11:27.278Z,3.70
2022-12-18T08:13:54.975Z,3.70
2022-12-18T08:16:23.010Z,3.88
2022-12-18T08:18:53.136Z,4.45
2022-12-18T08:21:25.996Z,4.47
2022-12-18T08:23:54.602Z,4.75
2022-12-18T08:26:23.809Z,3.88
2022-12-18T08:28:51.850Z,4.38
2022-12-18T08:31:19.962Z,4.30
2022-12-18T08:33:52.671Z,4.60
2022-12-18T08:36:22.885Z,4.25
2022-12-18T08:38:51.056Z,4.63
2022-12-18T08:41:19.331Z,4.18
2022-12-18T08:44:06.855Z,4.00
2022-12-18T08:46:39.315Z,3.85
2022-12-18T08:49:07.735Z,3.50
2022-12-18T08:51:35.404Z,3.50
2022-12-18T08:54:03.468Z,3.10
2022-12-18T08:56:34.469Z,2.38
2022-12-18T08:59:02.219Z,2.90
2022-12-18T09:01:35.673Z,3.10
2022-12-18T09:04:03.612Z,3.20
2022-12-18T09:06:32.110Z,2.95
2022-12-18T09:08:59.863Z,3.00
2022-12-18T09:11:28.472Z,3.95
2022-12-18T09:13:56.688Z,2.95
2022-12-18T09:16:31.514Z,3.47
2022-12-18T09:19:03.055Z,3.00
2022-12-18T09:21:36.854Z,3.00
2022-12-18T09:24:07.053Z,2.70
2022-12-18T09:26:36.889Z,2.95
2022-12-18T09:29:04.919Z,2.22
2022-12-18T09:31:32.651Z,2.72
2022-12-18T09:34:00.278Z,2.72
2022-12-18T09:36:28.008Z,2.10
2022-12-18T09:38:55.824Z,2.20
2022-12-18T09:41:38.867Z,2.13
2022-12-18T09:44:12.637Z,1.95
2022-12-18T09:46:44.107Z,1.90
2022-12-18T09:49:17.337Z,2.10
2022-12-18T09:51:58.034Z,2.13
2022-12-18T09:54:27.843Z,1.70
2022-12-18T09:56:55.815Z,2.00
2022-12-18T09:59:28.403Z,1.83
2022-12-18T10:01:56.535Z,1.63
2022-12-18T10:04:25.708Z,1.30
2022-12-18T10:07:02.025Z,1.83
2022-12-18T10:10:09.027Z,1.92
2022-12-18T10:12:46.422Z,1.70
2022-12-18T10:15:20.240Z,1.83
2022-12-18T10:18:22.066Z,1.85
2022-12-18T10:20:51.517Z,1.92
2022-12-18T10:23:32.644Z,2.03
2022-12-18T10:26:02.475Z,2.10
2022-12-18T10:28:36.431Z,1.85
2022-12-18T10:31:06.941Z,2.25
2022-12-18T10:33:34.846Z,1.87
2022-12-18T10:36:02.876Z,1.88
2022-12-18T10:38:32.972Z,1.67
2022-12-18T10:41:21.797Z,1.65
2022-12-18T10:43:52.283Z,2.03
2022-12-18T10:46:23.022Z,2.50
2022-12-18T10:48:55.677Z,2.00
2022-12-18T10:51:31.405Z,1.90
2022-12-18T10:54:28.881Z,1.77
2022-12-18T10:57:15.483Z,2.10
2022-12-18T10:59:54.787Z,1.90
2022-12-18T11:02:36.058Z,2.00
2022-12-18T11:05:07.268Z,2.00
2022-12-18T11:07:50.498Z,1.60
2022-12-18T11:10:20.312Z,1.98
2022-12-18T11:12:48.339Z,1.77
2022-12-18T11:15:25.880Z,2.03
2022-12-18T11:17:53.613Z,2.08
2022-12-18T11:20:31.296Z,2.10
2022-12-18T11:23:06.735Z,2.28
2022-12-18T11:25:36.399Z,2.40
2022-12-18T11:28:06.337Z,2.70
2022-12-18T11:30:36.627Z,2.53
2022-12-18T11:33:15.929Z,2.63
2022-12-18T11:35:59.568Z,2.50
2022-12-18T11:38:35.602Z,2.42
2022-12-18T11:41:49.966Z,2.63
2022-12-18T11:44:30.433Z,2.00
2022-12-18T11:47:20.353Z,2.25
2022-12-18T11:49:50.435Z,2.50
2022-12-18T11:52:21.241Z,3.13
2022-12-18T11:54:52.413Z,2.72
2022-12-18T11:57:36.081Z,2.22
2022-12-18T12:00:12.864Z,2.40
2022-12-18T12:03:14.625Z,2.40
2022-12-18T12:06:06.856Z,2.10
2022-12-18T12:09:05.116Z,2.20
2022-12-18T12:11:45.282Z,2.55
2022-12-18T12:14:34.679Z,2.40
2022-12-18T12:17:10.587Z,3.13
2022-12-18T12:20:07.492Z,1.35
2022-12-18T12:22:42.793Z,1.50
2022-12-18T12:25:18.636Z,1.63
2022-12-18T12:28:10.243Z,1.40
2022-12-18T12:30:40.767Z,1.60
2022-12-18T12:33:23.642Z,1.70
2022-12-18T12:36:04.624Z,1.95
2022-12-18T12:38:49.817Z,2.03
2022-12-18T12:41:43.819Z,2.13
2022-12-18T12:44:18.363Z,2.85
2022-12-18T12:46:46.718Z,3.00
2022-12-18T12:49:16.786Z,2.55
2022-12-18T12:51:51.513Z,2.95
2022-12-18T12:54:22.580Z,2.50
2022-12-18T12:56:59.074Z,1.80
2022-12-18T12:59:39.560Z,1.90
2022-12-18T13:02:30.378Z,1.70
2022-12-18T13:05:02.357Z,2.45
2022-12-18T13:07:37.155Z,2.40
2022-12-18T13:10:31.378Z,2.85
2022-12-18T13:13:10.728Z,3.22
2022-12-18T13:15:42.728Z,2.95
2022-12-18T13:18:10.845Z,3.88
2022-12-18T13:20:52.243Z,3.22
2022-12-18T13:23:26.227Z,2.50
2022-12-18T13:25:58.135Z,2.80
2022-12-18T13:28:34.828Z,2.80
2022-12-18T13:31:02.799Z,3.08
2022-12-18T13:33:30.776Z,2.88
2022-12-18T13:36:14.785Z,3.40
2022-12-18T13:38:43.263Z,3.50
2022-12-18T13:41:14.484Z,2.90
2022-12-18T13:43:50.860Z,2.30
2022-12-18T13:46:21.713Z,2.55
2022-12-18T13:49:06.359Z,2.63
2022-12-18T13:51:34.905Z,2.10
2022-12-18T13:54:32.446Z,2.45
2022-12-18T13:57:00.223Z,2.05
2022-12-18T13:59:37.651Z,2.65
2022-12-18T14:02:15.571Z,2.33
2022-12-18T14:04:46.239Z,2.80
2022-12-18T14:07:19.504Z,2.78
2022-12-18T14:10:01.935Z,2.20
2022-12-18T14:12:59.181Z,2.72
2022-12-18T14:15:38.223Z,2.47
2022-12-18T14:18:35.060Z,2.58
2022-12-18T14:21:03.536Z,3.40
2022-12-18T14:23:35.849Z,3.20
2022-12-18T14:26:06.237Z,3.25
2022-12-18T14:28:36.304Z,2.97
2022-12-18T14:31:03.918Z,2.80
2022-12-18T14:33:31.592Z,2.28
2022-12-18T14:36:05.034Z,1.88
2022-12-18T14:38:36.257Z,1.90
2022-12-18T14:41:04.760Z,2.28
2022-12-18T14:43:37.750Z,2.30
2022-12-18T14:46:09.813Z,1.70
2022-12-18T14:48:43.838Z,2.08
2022-12-18T14:51:11.596Z,2.30
2022-12-18T14:53:41.883Z,2.08
2022-12-18T14:56:31.797Z,2.58
2022-12-18T14:59:04.560Z,2.25
2022-12-18T15:01:46.534Z,2.50
2022-12-18T15:04:37.034Z,2.65
2022-12-18T15:07:08.085Z,2.47
2022-12-18T15:09:38.076Z,2.88
2022-12-18T15:12:27.359Z,2.05
2022-12-18T15:14:55.046Z,2.25
2022-12-18T15:17:24.137Z,2.28
2022-12-18T15:19:54.965Z,2.50
2022-12-18T15:22:29.591Z,3.17
2022-12-18T15:24:58.436Z,4.20
2022-12-18T15:27:41.600Z,2.92
2022-12-18T15:30:09.220Z,2.97
2022-12-18T15:32:37.757Z,3.13
2022-12-18T15:35:15.597Z,3.45
2022-12-18T15:37:43.566Z,3.42
2022-12-18T15:40:18.525Z,3.20
2022-12-18T15:43:08.628Z,3.60
2022-12-18T15:45:36.595Z,3.17
2022-12-18T15:48:21.971Z,3.15
2022-12-18T15:50:53.457Z,3.10
2022-12-18T15:53:24.708Z,2.92
2022-12-18T15:56:10.841Z,3.13
2022-12-18T15:58:38.615Z,3.10
2022-12-18T16:01:06.419Z,2.63
2022-12-18T16:03:34.554Z,3.53
2022-12-18T16:06:04.119Z,3.65
2022-12-18T16:08:32.156Z,3.50
2022-12-18T16:10:59.922Z,2.80
